TimeEDT,TemperatureF,Dew PointF,Humidity,Sea Level PressureIn,VisibilityMPH,Wind Direction,Wind SpeedMPH,Gust SpeedMPH,PrecipitationIn,Events,Conditions,WindDirDegrees,DateUTC
12:53 AM,33.1,18.0,54,30.14,10.0,West,5.8,-,N/A,,Clear,280,2013-03-20 04:53:00
1:53 AM,33.1,18.0,54,30.13,10.0,West,4.6,-,N/A,,Clear,270,2013-03-20 05:53:00
2:53 AM,30.0,17.1,59,30.12,10.0,West,4.6,-,N/A,,Clear,260,2013-03-20 06:53:00
3:53 AM,26.1,18.0,71,30.09,10.0,Calm,Calm,-,N/A,,Clear,0,2013-03-20 07:53:00
4:53 AM,30.0,17.1,59,30.07,10.0,WSW,4.6,-,N/A,,Clear,250,2013-03-20 08:53:00
5:53 AM,30.0,17.1,59,30.05,10.0,West,4.6,-,N/A,,Clear,260,2013-03-20 09:53:00
6:53 AM,30.9,17.1,57,30.06,10.0,West,8.1,-,N/A,,Clear,280,2013-03-20 10:53:00
7:53 AM,28.9,16.0,58,30.09,10.0,WNW,5.8,-,N/A,,Clear,300,2013-03-20 11:53:00
8:53 AM,28.9,15.1,56,30.10,10.0,NW,10.4,16.1,N/A,,Clear,310,2013-03-20 12:53:00
9:53 AM,30.0,16.0,56,30.11,10.0,NNW,8.1,-,N/A,,Partly Cloudy,330,2013-03-20 13:53:00
10:53 AM,28.9,16.0,58,30.11,10.0,West,10.4,19.6,N/A,,Overcast,280,2013-03-20 14:53:00
11:53 AM,28.0,17.1,63,30.12,5.0,WNW,13.8,21.9,0.00,Snow,Light Snow,290,2013-03-20 15:53:00
12:02 PM,30.2,15.8,55,30.09,9.0,WNW,9.2,19.6,0.00,,Overcast,300,2013-03-20 16:02:00
12:53 PM,30.9,15.1,52,30.12,10.0,WNW,12.7,21.9,0.00,,Mostly Cloudy,300,2013-03-20 16:53:00
1:53 PM,32.0,12.9,45,30.10,10.0,WNW,10.4,-,N/A,,Mostly Cloudy,290,2013-03-20 17:53:00
2:53 PM,30.9,12.0,46,30.08,10.0,West,16.1,25.3,N/A,,Mostly Cloudy,270,2013-03-20 18:53:00
3:53 PM,32.0,12.0,44,30.06,10.0,West,19.6,27.6,N/A,,Overcast,280,2013-03-20 19:53:00
4:53 PM,28.9,10.9,47,30.07,10.0,WNW,11.5,18.4,N/A,,Overcast,290,2013-03-20 20:53:00
5:53 PM,28.0,9.0,45,30.07,10.0,West,12.7,19.6,N/A,,Overcast,280,2013-03-20 21:53:00
6:53 PM,28.0,8.1,43,30.07,10.0,WNW,11.5,21.9,N/A,,Overcast,290,2013-03-20 22:53:00
7:53 PM,28.0,7.0,41,30.07,10.0,WNW,11.5,16.1,N/A,,Mostly Cloudy,300,2013-03-20 23:53:00
8:53 PM,27.0,6.1,41,30.06,10.0,WNW,11.5,20.7,N/A,,Partly Cloudy,290,2013-03-21 00:53:00
9:53 PM,26.1,6.1,43,30.06,10.0,WNW,8.1,17.3,N/A,,Scattered Clouds,290,2013-03-21 01:53:00
10:53 PM,26.1,7.0,44,30.06,10.0,West,8.1,-,N/A,,Mostly Cloudy,280,2013-03-21 02:53:00
11:53 PM,25.0,7.0,46,30.05,10.0,WNW,10.4,18.4,N/A,,Partly Cloudy,290,2013-03-21 03:53:00